This is the latest recevied weather packets stored in our database for station/object KB0OLA. If no packets are shown the sender has not sent any weather packets the latest 10 day(s).
| Time | Temp. | Humidity | Pressure | Rain* | Wind** | Luminosity | Snow |
|---|---|---|---|---|---|---|---|
| 1777150517 | 13.89° C | 29% | 1008.5 hPa | 0 mm | - | - | - |
| 1777143337 | 12.22° C | 27% | 1010.4 hPa | 0 mm | - | - | - |
| 1777142137 | 11.67° C | 28% | 1010.6 hPa | 0 mm | - | - | - |
| 1777141517 | 11.11° C | 30% | 1010.8 hPa | 0 mm | - | - | - |
| 1777140937 | 11.67° C | 28% | 1011 hPa | 0 mm | - | - | - |
| 1777139718 | 11.11° C | 29% | 1011.2 hPa | 0 mm | - | - | - |
| 1777137337 | 9.44° C | 38% | 1011.4 hPa | 0 mm | - | - | - |
| 1777136716 | 8.89° C | 38% | 1011.5 hPa | 0 mm | - | - | - |
| 1777133159 | 6.67° C | 42% | 1011.6 hPa | 0 mm | - | - | - |
| 1777131918 | 6.11° C | 43% | 1011.7 hPa | 0 mm | - | - | - |
| 1777131318 | 5.56° C | 49% | 1011.7 hPa | 0 mm | - | - | - |
| 1777128319 | 3.33° C | 56% | 1011.6 hPa | 0 mm | - | - | - |
| 1777123518 | -1.11° C | 68% | 1011.3 hPa | 0 mm | - | - | - |
| 1777122318 | -1.67° C | 67% | 1011.2 hPa | 0 mm | - | - | - |
| 1777117517 | -1.11° C | 62% | 1011.2 hPa | 0 mm | - | - | - |
| 1777115117 | 0.56° C | 56% | 1011.2 hPa | 0 mm | - | - | - |
| 1777112717 | 1.11° C | 52% | 1011.4 hPa | 0 mm | - | - | - |
| 1777109117 | 2.78° C | 47% | 1011 hPa | 0 mm | - | - | - |
| 1777106117 | 3.33° C | 47% | 1011.3 hPa | 0 mm | - | - | - |
| 1777104917 | 3.89° C | 44% | 1011.2 hPa | 0 mm | - | - | - |
| 1777103717 | 3.89° C | 44% | 1011.4 hPa | 0 mm | - | - | - |
| 1777097116 | 5.56° C | 41% | 1010.9 hPa | 0 mm | - | - | - |
| 1777095317 | 6.11° C | 41% | 1010.6 hPa | 0 mm | - | - | - |
| 1777094717 | 6.11° C | 40% | 1010.6 hPa | 0 mm | - | - | - |
| 1777094117 | 6.11° C | 39% | 1010.6 hPa | 0 mm | - | - | - |
* Rain latest hour (hover to see other rain measurements)
** Current wind speed in m/s (hover to see current wind gust speed)